Time;durP1;ratioP1;P1;durP2;ratioP2;P2;SDS_P1;SDS_P2;PMS_P1;PMS_P2;Temp;Humidity;BMP_temperature;BMP_pressure;BME280_temperature;BME280_humidity;BME280_pressure;Samples;Min_cycle;Max_cycle;Signal;HPM_P1;HPM_P2
2023/05/23 00:00:08;;;;;;;11.68;9.60;;;;;;;;;;4977558;28;20058;-77
2023/05/23 00:02:35;;;;;;;11.38;9.68;;;;;;;;;;4984197;28;20050;-79
2023/05/23 00:05:02;;;;;;;10.70;9.38;;;;;;;;;;4997973;28;20064;-77
2023/05/23 00:07:31;;;;;;;12.98;9.70;;;;;;;;;;4995674;28;20042;-78
2023/05/23 00:09:58;;;;;;;11.02;9.07;;;;;;;;;;4977632;28;20054;-77
2023/05/23 00:12:24;;;;;;;11.18;9.20;;;;;;;;;;4976493;28;20510;-77
2023/05/23 00:14:52;;;;;;;10.85;8.73;;;;;;;;;;4974894;28;20049;-77
2023/05/23 00:17:20;;;;;;;10.70;8.73;;;;;;;;;;4974956;28;20043;-78
2023/05/23 00:19:47;;;;;;;12.07;9.05;;;;;;;;;;4954904;29;20061;-78
2023/05/23 00:22:15;;;;;;;10.80;9.07;;;;;;;;;;4955903;28;20142;-75
2023/05/23 00:24:44;;;;;;;11.55;9.20;;;;;;;;;;4973287;28;20046;-76
2023/05/23 00:27:10;;;;;;;10.88;8.90;;;;;;;;;;4975508;28;20046;-77
2023/05/23 00:29:37;;;;;;;11.48;9.13;;;;;;;;;;4976137;28;20065;-75
2023/05/23 00:32:03;;;;;;;11.57;9.30;;;;;;;;;;4980130;28;20054;-77
2023/05/23 00:34:30;;;;;;;11.38;9.45;;;;;;;;;;4980566;28;20054;-75
2023/05/23 00:36:57;;;;;;;11.63;9.30;;;;;;;;;;4980412;28;20129;-77
2023/05/23 00:39:23;;;;;;;11.38;8.75;;;;;;;;;;4974849;28;20054;-77
2023/05/23 00:41:52;;;;;;;12.55;9.23;;;;;;;;;;4975199;28;20046;-77
2023/05/23 00:44:19;;;;;;;12.00;9.90;;;;;;;;;;4975340;28;20047;-75
2023/05/23 00:46:49;;;;;;;10.73;8.73;;;;;;;;;;4975178;28;20697;-77
2023/05/23 00:49:18;;;;;;;12.00;8.87;;;;;;;;;;4973930;28;20074;-77
2023/05/23 00:51:45;;;;;;;11.40;8.73;;;;;;;;;;4974591;28;20567;-77
2023/05/23 00:54:14;;;;;;;11.63;8.77;;;;;;;;;;4974501;28;20520;-77
2023/05/23 00:56:42;;;;;;;12.38;9.60;;;;;;;;;;4975107;28;20114;-77
2023/05/23 00:59:11;;;;;;;13.93;9.35;;;;;;;;;;4974674;28;20046;-76
2023/05/23 01:01:39;;;;;;;11.40;9.40;;;;;;;;;;4975172;28;20042;-75
2023/05/23 01:04:06;;;;;;;10.45;9.35;;;;;;;;;;4993130;28;20461;-77
2023/05/23 01:06:33;;;;;;;10.77;8.65;;;;;;;;;;4994696;28;20306;-77
2023/05/23 01:09:01;;;;;;;10.77;8.88;;;;;;;;;;4979535;28;20394;-76
2023/05/23 01:11:35;;;;;;;13.32;9.07;;;;;;;;;;4973891;28;20081;-76
2023/05/23 01:14:07;;;;;;;10.63;8.68;;;;;;;;;;4974484;28;20057;-75
2023/05/23 01:16:47;;;;;;;13.18;9.50;;;;;;;;;;4974413;28;20114;-77
2023/05/23 01:19:37;;;;;;;11.20;9.63;;;;;;;;;;4974976;28;20051;-76
2023/05/23 01:22:12;;;;;;;12.73;9.63;;;;;;;;;;4975215;28;20066;-77
2023/05/23 01:24:54;;;;;;;12.20;9.50;;;;;;;;;;4975029;28;20133;-77
2023/05/23 01:27:30;;;;;;;11.98;9.30;;;;;;;;;;4975294;28;20103;-76
2023/05/23 01:30:01;;;;;;;13.45;10.35;;;;;;;;;;4974896;28;20134;-77
2023/05/23 01:32:29;;;;;;;11.75;9.65;;;;;;;;;;4978119;28;20078;-77
2023/05/23 01:34:57;;;;;;;13.40;10.23;;;;;;;;;;4975046;28;20050;-77
2023/05/23 01:37:23;;;;;;;12.25;9.32;;;;;;;;;;4975036;28;20572;-77
2023/05/23 01:39:50;;;;;;;12.68;10.35;;;;;;;;;;4974252;28;20043;-77
2023/05/23 01:42:17;;;;;;;13.30;10.40;;;;;;;;;;4975288;28;20509;-77
2023/05/23 01:44:45;;;;;;;12.07;9.48;;;;;;;;;;4977889;28;20494;-77
2023/05/23 01:47:14;;;;;;;12.65;9.65;;;;;;;;;;4978407;28;20521;-77
2023/05/23 01:49:43;;;;;;;13.13;9.77;;;;;;;;;;4977907;28;20137;-77
2023/05/23 01:52:10;;;;;;;11.68;9.40;;;;;;;;;;4980080;28;20429;-78
2023/05/23 01:54:37;;;;;;;11.48;9.73;;;;;;;;;;4980662;28;20074;-77
2023/05/23 01:57:05;;;;;;;13.48;10.25;;;;;;;;;;4979287;28;20129;-76
2023/05/23 01:59:32;;;;;;;12.50;9.85;;;;;;;;;;4976452;28;20080;-76
2023/05/23 02:01:59;;;;;;;11.05;9.48;;;;;;;;;;4978281;28;20057;-77
2023/05/23 02:04:28;;;;;;;14.40;9.98;;;;;;;;;;4995278;28;20078;-76
2023/05/23 02:06:54;;;;;;;14.50;10.27;;;;;;;;;;4996015;28;20054;-77
2023/05/23 02:09:21;;;;;;;14.23;10.75;;;;;;;;;;4994847;28;20129;-77
2023/05/23 02:11:47;;;;;;;13.57;9.88;;;;;;;;;;4975914;28;20476;-76
2023/05/23 02:14:14;;;;;;;13.07;9.73;;;;;;;;;;4975982;28;20047;-76
2023/05/23 02:16:41;;;;;;;13.30;10.32;;;;;;;;;;4975968;28;20047;-77
2023/05/23 02:19:07;;;;;;;13.27;10.02;;;;;;;;;;4975130;28;20138;-76
2023/05/23 02:21:35;;;;;;;13.32;9.45;;;;;;;;;;4975970;28;20105;-77
2023/05/23 02:24:02;;;;;;;14.30;10.85;;;;;;;;;;4976875;28;20058;-74
2023/05/23 02:26:29;;;;;;;13.10;10.18;;;;;;;;;;4976926;28;20133;-76
2023/05/23 02:28:55;;;;;;;14.02;10.40;;;;;;;;;;4978540;28;20053;-76
2023/05/23 02:31:22;;;;;;;14.38;11.40;;;;;;;;;;4994490;28;20077;-76
2023/05/23 02:33:48;;;;;;;15.18;10.27;;;;;;;;;;4979032;28;20086;-77
2023/05/23 02:36:15;;;;;;;13.85;11.02;;;;;;;;;;4979717;28;20047;-76
2023/05/23 02:38:43;;;;;;;16.30;11.23;;;;;;;;;;4976610;28;20042;-73
2023/05/23 02:41:10;;;;;;;13.90;11.18;;;;;;;;;;4975150;28;20077;-74
2023/05/23 02:43:36;;;;;;;13.60;11.52;;;;;;;;;;4974865;28;20098;-74
2023/05/23 02:46:03;;;;;;;13.77;11.25;;;;;;;;;;4975046;28;20086;-74
2023/05/23 02:48:29;;;;;;;15.80;11.07;;;;;;;;;;4974555;28;20490;-73
2023/05/23 02:50:56;;;;;;;13.02;10.63;;;;;;;;;;4974659;28;20552;-74
2023/05/23 02:53:23;;;;;;;13.95;11.07;;;;;;;;;;4974622;28;20061;-75
2023/05/23 02:55:51;;;;;;;15.45;11.45;;;;;;;;;;4975221;28;20141;-75
2023/05/23 02:58:17;;;;;;;14.75;10.98;;;;;;;;;;4974839;28;20122;-75
2023/05/23 03:00:44;;;;;;;14.93;11.38;;;;;;;;;;4974830;28;20047;-75
2023/05/23 03:03:11;;;;;;;13.38;10.90;;;;;;;;;;4977692;28;20145;-75
2023/05/23 03:05:38;;;;;;;13.98;10.65;;;;;;;;;;4992203;28;20429;-75
2023/05/23 03:08:05;;;;;;;13.65;11.27;;;;;;;;;;4993554;28;20056;-75
2023/05/23 03:10:32;;;;;;;13.43;10.77;;;;;;;;;;4993374;28;20137;-75
2023/05/23 03:12:59;;;;;;;13.57;10.93;;;;;;;;;;4983065;28;20418;-74
2023/05/23 03:15:26;;;;;;;13.07;10.77;;;;;;;;;;4974340;28;20521;-75
2023/05/23 03:17:53;;;;;;;17.10;12.40;;;;;;;;;;4974072;28;20490;-74
2023/05/23 03:20:19;;;;;;;14.98;10.88;;;;;;;;;;4974447;28;20054;-74
2023/05/23 03:22:47;;;;;;;12.82;9.95;;;;;;;;;;4974427;28;20069;-74
2023/05/23 03:25:15;;;;;;;18.63;12.55;;;;;;;;;;4974128;28;20493;-74
2023/05/23 03:27:41;;;;;;;14.73;12.00;;;;;;;;;;4974192;28;20050;-75
2023/05/23 03:30:11;;;;;;;15.95;12.05;;;;;;;;;;4974087;28;20050;-75
2023/05/23 03:32:37;;;;;;;14.85;11.25;;;;;;;;;;4973722;28;20057;-74
2023/05/23 03:35:04;;;;;;;15.05;11.55;;;;;;;;;;4973991;28;20042;-74
2023/05/23 03:37:31;;;;;;;15.57;11.70;;;;;;;;;;4974194;28;20509;-75
2023/05/23 03:39:57;;;;;;;16.08;11.55;;;;;;;;;;4973577;28;20066;-74
2023/05/23 03:42:24;;;;;;;15.00;11.85;;;;;;;;;;4974046;28;20514;-74
2023/05/23 03:44:50;;;;;;;15.10;11.00;;;;;;;;;;4973742;28;20055;-74
2023/05/23 03:47:18;;;;;;;16.08;12.48;;;;;;;;;;4973951;28;20156;-75
2023/05/23 03:49:45;;;;;;;18.77;12.63;;;;;;;;;;4973911;28;20054;-75
2023/05/23 03:52:12;;;;;;;15.10;11.75;;;;;;;;;;4973840;28;20043;-74
2023/05/23 03:54:38;;;;;;;16.20;11.50;;;;;;;;;;4973515;28;20043;-74
2023/05/23 03:57:05;;;;;;;14.60;11.75;;;;;;;;;;4973787;28;20078;-74
2023/05/23 03:59:32;;;;;;;15.80;12.02;;;;;;;;;;4973141;28;20057;-74
2023/05/23 04:01:59;;;;;;;15.63;12.35;;;;;;;;;;4974698;28;20043;-74
2023/05/23 04:04:28;;;;;;;15.10;12.95;;;;;;;;;;4987521;28;20137;-75
2023/05/23 04:06:54;;;;;;;15.55;11.75;;;;;;;;;;4973112;28;20053;-75
2023/05/23 04:09:21;;;;;;;15.20;10.93;;;;;;;;;;4972765;28;20137;-75
2023/05/23 04:11:48;;;;;;;17.92;12.80;;;;;;;;;;4973519;28;20142;-76
2023/05/23 04:14:14;;;;;;;15.57;11.85;;;;;;;;;;4973133;28;20524;-76
2023/05/23 04:16:41;;;;;;;18.88;13.50;;;;;;;;;;4973659;28;20057;-75
2023/05/23 04:19:08;;;;;;;17.10;12.70;;;;;;;;;;4973275;28;20097;-75
2023/05/23 04:21:36;;;;;;;17.33;13.23;;;;;;;;;;4973577;28;20057;-76
2023/05/23 04:24:02;;;;;;;15.25;12.13;;;;;;;;;;4972852;28;20422;-76
2023/05/23 04:26:29;;;;;;;18.50;12.60;;;;;;;;;;4973345;28;20043;-76
2023/05/23 04:28:55;;;;;;;16.83;12.98;;;;;;;;;;4972977;28;20058;-75
2023/05/23 04:31:22;;;;;;;16.25;12.48;;;;;;;;;;4972660;28;20082;-76
2023/05/23 04:33:49;;;;;;;15.70;12.25;;;;;;;;;;4972942;28;20051;-75
2023/05/23 04:36:17;;;;;;;18.70;13.05;;;;;;;;;;4972924;28;20158;-75
2023/05/23 04:38:44;;;;;;;16.83;12.50;;;;;;;;;;4972816;28;20422;-75
2023/05/23 04:41:11;;;;;;;18.35;13.40;;;;;;;;;;4972997;28;20589;-75
2023/05/23 04:43:41;;;;;;;19.33;13.48;;;;;;;;;;4973101;28;20046;-75
2023/05/23 04:46:09;;;;;;;19.85;13.18;;;;;;;;;;4972895;28;20050;-75
2023/05/23 04:48:37;;;;;;;19.30;13.52;;;;;;;;;;4972843;28;20118;-75
2023/05/23 04:51:06;;;;;;;18.33;12.98;;;;;;;;;;4973024;28;20506;-77
2023/05/23 04:53:33;;;;;;;16.55;12.98;;;;;;;;;;4983252;28;20065;-76
2023/05/23 04:56:01;;;;;;;18.90;13.73;;;;;;;;;;4991838;28;20134;-76
2023/05/23 04:58:28;;;;;;;20.05;13.93;;;;;;;;;;4983391;28;20074;-77
2023/05/23 05:00:55;;;;;;;18.05;13.32;;;;;;;;;;4977721;28;20138;-77
2023/05/23 05:03:23;;;;;;;19.73;14.52;;;;;;;;;;4990254;28;20134;-76
2023/05/23 05:05:50;;;;;;;17.05;12.38;;;;;;;;;;4996473;28;20070;-77
2023/05/23 05:08:18;;;;;;;19.77;13.40;;;;;;;;;;4995416;28;20054;-77
2023/05/23 05:10:45;;;;;;;19.05;13.88;;;;;;;;;;4977094;28;20142;-77
2023/05/23 05:13:13;;;;;;;17.92;12.75;;;;;;;;;;4978272;28;20206;-77
2023/05/23 05:15:40;;;;;;;18.33;13.85;;;;;;;;;;4977857;28;20111;-77
2023/05/23 05:18:06;;;;;;;20.00;13.85;;;;;;;;;;4983712;28;20047;-76
2023/05/23 05:20:33;;;;;;;19.08;13.77;;;;;;;;;;4987699;28;20074;-77
2023/05/23 05:23:00;;;;;;;19.50;14.70;;;;;;;;;;4988237;28;20581;-77
2023/05/23 05:25:30;;;;;;;17.98;13.55;;;;;;;;;;4986263;28;20046;-78
2023/05/23 05:27:57;;;;;;;17.98;13.93;;;;;;;;;;4981444;28;20058;-76
2023/05/23 05:30:25;;;;;;;19.38;13.38;;;;;;;;;;4983015;28;20461;-77
2023/05/23 05:32:51;;;;;;;19.77;14.63;;;;;;;;;;4982560;28;20110;-78
2023/05/23 05:35:18;;;;;;;21.27;14.05;;;;;;;;;;4981904;28;20130;-78
2023/05/23 05:37:45;;;;;;;20.33;15.20;;;;;;;;;;4983009;28;20057;-75
2023/05/23 05:40:12;;;;;;;20.02;14.75;;;;;;;;;;4987301;28;20047;-76
2023/05/23 05:42:39;;;;;;;18.67;13.30;;;;;;;;;;4989335;28;20078;-77
2023/05/23 05:45:06;;;;;;;18.65;14.02;;;;;;;;;;4987240;28;20090;-76
2023/05/23 05:47:35;;;;;;;18.88;14.57;;;;;;;;;;4987095;28;20065;-76
2023/05/23 05:50:02;;;;;;;20.52;14.05;;;;;;;;;;4987295;28;20069;-76
2023/05/23 05:52:29;;;;;;;18.27;14.10;;;;;;;;;;4988574;28;20051;-77
2023/05/23 05:54:56;;;;;;;20.45;13.88;;;;;;;;;;4984688;28;20489;-77
2023/05/23 05:57:23;;;;;;;19.42;14.15;;;;;;;;;;4981818;28;20051;-78
2023/05/23 05:59:49;;;;;;;21.50;14.60;;;;;;;;;;4981431;28;20053;-78
2023/05/23 06:02:16;;;;;;;21.73;14.10;;;;;;;;;;4986801;28;20105;-77
2023/05/23 06:04:44;;;;;;;18.98;14.10;;;;;;;;;;4992261;28;20043;-78
2023/05/23 06:07:11;;;;;;;19.88;14.80;;;;;;;;;;4980794;28;20050;-78
2023/05/23 06:09:37;;;;;;;18.40;14.13;;;;;;;;;;4979087;28;20050;-77
2023/05/23 06:12:04;;;;;;;20.10;14.35;;;;;;;;;;4979409;28;20186;-77
2023/05/23 06:14:31;;;;;;;24.42;16.42;;;;;;;;;;4980254;28;20057;-78
2023/05/23 06:16:58;;;;;;;18.77;14.80;;;;;;;;;;4979782;28;20679;-78
2023/05/23 06:19:25;;;;;;;20.10;14.27;;;;;;;;;;4980738;28;20058;-76
2023/05/23 06:21:53;;;;;;;23.73;15.45;;;;;;;;;;4980748;28;20050;-78
2023/05/23 06:24:19;;;;;;;21.00;14.65;;;;;;;;;;4979439;28;20047;-77
2023/05/23 06:26:46;;;;;;;20.83;15.48;;;;;;;;;;4978903;28;20090;-77
2023/05/23 06:29:13;;;;;;;21.52;15.48;;;;;;;;;;4977851;28;20090;-77
2023/05/23 06:31:39;;;;;;;24.52;15.63;;;;;;;;;;4978043;28;20057;-77
2023/05/23 06:34:06;;;;;;;21.85;15.95;;;;;;;;;;4988095;28;20617;-78
2023/05/23 06:36:33;;;;;;;21.65;15.50;;;;;;;;;;4985529;28;20577;-77
2023/05/23 06:39:01;;;;;;;19.40;14.10;;;;;;;;;;4981732;28;20494;-77
2023/05/23 06:41:27;;;;;;;20.15;14.57;;;;;;;;;;4979409;28;20082;-77
2023/05/23 06:43:54;;;;;;;20.58;14.95;;;;;;;;;;4977202;28;20046;-79
2023/05/23 06:46:20;;;;;;;23.63;15.77;;;;;;;;;;4980417;28;20047;-77
2023/05/23 06:48:47;;;;;;;21.55;15.52;;;;;;;;;;4961460;29;20094;-77
2023/05/23 06:51:14;;;;;;;24.45;17.48;;;;;;;;;;4962446;29;20107;-78
2023/05/23 06:53:40;;;;;;;25.10;16.67;;;;;;;;;;4974585;28;20138;-78
2023/05/23 06:56:08;;;;;;;24.77;16.75;;;;;;;;;;4984326;28;20118;-77
2023/05/23 06:58:35;;;;;;;21.42;15.73;;;;;;;;;;4985915;28;20049;-78
2023/05/23 07:01:02;;;;;;;23.77;16.85;;;;;;;;;;4987739;28;20042;-76
2023/05/23 07:03:28;;;;;;;24.98;17.27;;;;;;;;;;4995237;28;20086;-77
2023/05/23 07:05:55;;;;;;;23.00;16.58;;;;;;;;;;4996049;28;20049;-77
2023/05/23 07:08:21;;;;;;;22.67;17.35;;;;;;;;;;4981012;28;20049;-78
2023/05/23 07:10:48;;;;;;;22.42;15.35;;;;;;;;;;4974944;28;20150;-77
2023/05/23 07:13:16;;;;;;;24.58;17.25;;;;;;;;;;4974991;28;20046;-77
2023/05/23 07:15:43;;;;;;;24.70;17.55;;;;;;;;;;4974955;28;20134;-77
2023/05/23 07:18:10;;;;;;;25.60;18.77;;;;;;;;;;4974460;28;20519;-77
2023/05/23 07:20:36;;;;;;;25.95;17.50;;;;;;;;;;4982981;28;20053;-78
2023/05/23 07:23:03;;;;;;;25.73;18.00;;;;;;;;;;4992791;28;20153;-78
2023/05/23 07:25:30;;;;;;;23.42;16.30;;;;;;;;;;4984365;28;20130;-78
2023/05/23 07:27:56;;;;;;;25.77;18.33;;;;;;;;;;4977896;28;20053;-77
2023/05/23 07:30:24;;;;;;;23.83;17.35;;;;;;;;;;4978265;28;20110;-78
2023/05/23 07:32:52;;;;;;;23.67;18.83;;;;;;;;;;4979712;28;20137;-77
2023/05/23 07:35:22;;;;;;;24.02;18.17;;;;;;;;;;4981829;28;20071;-77
2023/05/23 07:37:49;;;;;;;;;;;;;;;;;;4992479;28;20087;-75
2023/05/23 07:40:16;;;;;;;24.40;17.67;;;;;;;;;;4999961;28;19928;-75
2023/05/23 07:42:42;;;;;;;24.08;18.73;;;;;;;;;;5006706;28;20089;-75
2023/05/23 07:45:09;;;;;;;23.17;17.95;;;;;;;;;;5001602;28;20065;-76
2023/05/23 07:47:38;;;;;;;25.15;17.58;;;;;;;;;;4996376;28;20042;-76
2023/05/23 07:50:05;;;;;;;24.00;17.27;;;;;;;;;;4997590;28;20114;-77
2023/05/23 07:52:32;;;;;;;22.83;17.88;;;;;;;;;;4998931;28;20081;-76
2023/05/23 07:54:59;;;;;;;21.83;16.83;;;;;;;;;;4997442;28;20052;-78
2023/05/23 07:57:26;;;;;;;24.10;17.50;;;;;;;;;;4997755;28;20066;-76
2023/05/23 07:59:53;;;;;;;25.02;16.98;;;;;;;;;;4996572;28;20126;-77
2023/05/23 08:02:20;;;;;;;26.10;18.25;;;;;;;;;;4994648;28;20119;-77
2023/05/23 08:04:48;;;;;;;24.35;17.88;;;;;;;;;;4979352;28;20072;-78
2023/05/23 08:07:15;;;;;;;22.63;17.95;;;;;;;;;;4974503;28;20048;-77
2023/05/23 08:09:42;;;;;;;24.40;18.15;;;;;;;;;;4973398;28;20134;-76
2023/05/23 08:12:09;;;;;;;25.23;18.73;;;;;;;;;;4974193;28;20054;-76
2023/05/23 08:14:36;;;;;;;25.70;17.45;;;;;;;;;;4973325;28;20050;-80
2023/05/23 08:17:03;;;;;;;22.70;16.70;;;;;;;;;;4973346;28;20051;-78
2023/05/23 08:19:30;;;;;;;24.77;18.10;;;;;;;;;;4974218;28;20054;-77
2023/05/23 08:21:58;;;;;;;26.17;18.13;;;;;;;;;;4976684;28;20577;-84
2023/05/23 08:24:24;;;;;;;24.50;17.80;;;;;;;;;;4975442;28;20141;-82
2023/05/23 08:26:51;;;;;;;27.02;18.88;;;;;;;;;;4978176;28;20139;-80
2023/05/23 08:29:18;;;;;;;27.25;19.15;;;;;;;;;;4974727;28;20043;-78
2023/05/23 08:31:44;;;;;;;24.13;18.45;;;;;;;;;;4976510;28;20513;-78
2023/05/23 08:34:13;;;;;;;24.73;18.67;;;;;;;;;;4976995;28;20061;-77
2023/05/23 08:36:41;;;;;;;26.50;18.40;;;;;;;;;;4977051;28;20054;-77
2023/05/23 08:39:10;;;;;;;23.60;17.25;;;;;;;;;;4977626;28;20478;-78
2023/05/23 08:41:37;;;;;;;27.45;19.45;;;;;;;;;;4975396;28;20051;-76
2023/05/23 08:44:03;;;;;;;21.55;17.73;;;;;;;;;;4975821;28;20486;-78
2023/05/23 08:46:32;;;;;;;23.75;17.33;;;;;;;;;;4975132;28;20049;-77
2023/05/23 08:49:00;;;;;;;24.90;18.13;;;;;;;;;;4975164;28;20057;-78
2023/05/23 08:51:27;;;;;;;25.55;17.63;;;;;;;;;;4977128;28;20051;-77
2023/05/23 08:53:55;;;;;;;21.23;16.35;;;;;;;;;;4975940;28;20069;-77
2023/05/23 08:56:24;;;;;;;24.70;18.02;;;;;;;;;;4978289;28;20051;-78
2023/05/23 08:58:51;;;;;;;24.77;17.50;;;;;;;;;;4980933;28;20047;-77
2023/05/23 09:01:19;;;;;;;26.05;18.38;;;;;;;;;;4979446;28;20117;-78
2023/05/23 09:03:49;;;;;;;24.65;17.92;;;;;;;;;;4993991;28;20046;-77
2023/05/23 09:06:17;;;;;;;23.85;17.83;;;;;;;;;;5002493;28;20046;-76
2023/05/23 09:08:45;;;;;;;25.70;19.08;;;;;;;;;;5001874;28;20046;-78
2023/05/23 09:11:12;;;;;;;26.30;17.95;;;;;;;;;;4983006;28;20383;-76
2023/05/23 09:13:40;;;;;;;26.50;19.60;;;;;;;;;;4980719;28;20106;-75
2023/05/23 09:16:09;;;;;;;22.27;17.95;;;;;;;;;;4989550;28;20079;-78
2023/05/23 09:18:38;;;;;;;26.67;18.20;;;;;;;;;;4990668;28;20068;-80
2023/05/23 09:21:05;;;;;;;21.85;16.88;;;;;;;;;;4989584;28;20058;-77
2023/05/23 09:23:32;;;;;;;24.20;16.63;;;;;;;;;;4987724;28;20051;-78
2023/05/23 09:26:03;;;;;;;25.52;19.95;;;;;;;;;;4989032;28;20053;-77
2023/05/23 09:28:30;;;;;;;23.67;17.40;;;;;;;;;;4978757;28;20214;-78
2023/05/23 09:31:02;;;;;;;24.70;18.75;;;;;;;;;;4978700;28;20133;-81
2023/05/23 09:33:36;;;;;;;27.25;19.30;;;;;;;;;;4975913;28;20130;-79
2023/05/23 09:36:05;;;;;;;23.90;17.48;;;;;;;;;;4975620;28;20066;-78
2023/05/23 09:38:31;;;;;;;26.83;19.75;;;;;;;;;;4975791;28;20042;-77
2023/05/23 09:40:59;;;;;;;24.50;18.80;;;;;;;;;;4975229;28;20070;-79
2023/05/23 09:43:26;;;;;;;25.13;19.17;;;;;;;;;;4974876;28;20631;-78
2023/05/23 09:45:54;;;;;;;24.98;18.90;;;;;;;;;;4974373;28;20043;-76
2023/05/23 09:48:28;;;;;;;24.73;18.42;;;;;;;;;;4974572;28;20051;-78
2023/05/23 09:50:54;;;;;;;22.75;16.88;;;;;;;;;;4975308;28;20062;-78
2023/05/23 09:53:21;;;;;;;23.05;17.08;;;;;;;;;;4977845;28;20047;-77
2023/05/23 09:55:51;;;;;;;24.00;17.77;;;;;;;;;;4977254;28;20047;-78
2023/05/23 09:58:19;;;;;;;26.48;18.38;;;;;;;;;;4975511;28;20476;-78
2023/05/23 10:00:46;;;;;;;23.63;17.80;;;;;;;;;;4974740;28;20050;-79
2023/05/23 10:03:16;;;;;;;25.33;18.50;;;;;;;;;;4989901;28;20058;-78
2023/05/23 10:05:47;;;;;;;26.15;19.88;;;;;;;;;;4998387;28;20121;-78
2023/05/23 10:08:18;;;;;;;25.08;17.90;;;;;;;;;;4998301;28;20061;-79
2023/05/23 10:11:23;;;;;;;24.98;19.83;;;;;;;;;;4998604;28;20137;-78
2023/05/23 10:13:52;;;;;;;25.60;18.92;;;;;;;;;;4997236;28;20149;-78
2023/05/23 10:16:21;;;;;;;25.85;19.58;;;;;;;;;;4998103;28;20100;-78
2023/05/23 10:18:51;;;;;;;24.52;18.15;;;;;;;;;;4994949;28;20050;-78
2023/05/23 10:21:25;;;;;;;24.85;18.73;;;;;;;;;;4995832;28;20053;-78
2023/05/23 10:23:53;;;;;;;28.88;20.48;;;;;;;;;;4998316;28;20097;-77
2023/05/23 10:26:20;;;;;;;24.35;18.90;;;;;;;;;;4995969;28;20097;-77
2023/05/23 10:28:49;;;;;;;25.73;18.20;;;;;;;;;;4986400;28;20054;-78
2023/05/23 10:31:17;;;;;;;26.85;19.48;;;;;;;;;;4976018;28;20078;-80
2023/05/23 10:33:50;;;;;;;25.42;18.90;;;;;;;;;;4974149;28;20039;-76
2023/05/23 10:36:24;;;;;;;21.90;17.33;;;;;;;;;;4973410;28;20071;-75
2023/05/23 10:38:55;;;;;;;23.83;18.27;;;;;;;;;;4973247;28;20054;-75
2023/05/23 10:41:27;;;;;;;25.15;18.88;;;;;;;;;;4973547;28;20078;-78
2023/05/23 10:44:00;;;;;;;25.98;18.50;;;;;;;;;;4974791;28;20130;-76
2023/05/23 10:46:53;;;;;;;24.73;18.52;;;;;;;;;;4973853;28;20038;-76
2023/05/23 10:49:20;;;;;;;23.35;17.13;;;;;;;;;;4974281;28;20100;-75
2023/05/23 10:51:49;;;;;;;23.65;17.60;;;;;;;;;;4975095;28;20470;-77
2023/05/23 10:54:18;;;;;;;21.90;16.13;;;;;;;;;;4978141;28;20049;-77
2023/05/23 10:56:45;;;;;;;20.95;15.95;;;;;;;;;;4983487;22;20131;-75
2023/05/23 10:59:20;;;;;;;18.52;15.00;;;;;;;;;;4970194;28;20070;-74
2023/05/23 11:01:46;;;;;;;16.88;14.43;;;;;;;;;;4970420;28;20062;-76
2023/05/23 11:04:13;;;;;;;16.98;13.07;;;;;;;;;;4972049;28;20050;-77
2023/05/23 11:06:41;;;;;;;19.05;15.15;;;;;;;;;;4959715;28;20054;-76
2023/05/23 11:09:15;;;;;;;20.02;14.93;;;;;;;;;;4953445;29;20075;-76
2023/05/23 11:12:03;;;;;;;17.42;14.70;;;;;;;;;;4953918;29;20055;-76
2023/05/23 11:14:51;;;;;;;19.70;14.30;;;;;;;;;;4934357;29;20091;-76
2023/05/23 11:17:18;;;;;;;18.50;14.25;;;;;;;;;;4933259;29;20055;-74
2023/05/23 11:19:59;;;;;;;18.30;14.93;;;;;;;;;;4934246;29;20059;-75
2023/05/23 11:22:30;;;;;;;16.92;13.57;;;;;;;;;;4935986;29;20510;-77
2023/05/23 11:24:59;;;;;;;19.90;15.30;;;;;;;;;;4942135;29;20047;-75
2023/05/23 11:27:27;;;;;;;18.17;14.32;;;;;;;;;;4954268;29;20062;-75
2023/05/23 11:30:02;;;;;;;18.50;14.63;;;;;;;;;;4954318;29;20051;-76
2023/05/23 11:32:30;;;;;;;16.42;14.38;;;;;;;;;;4953397;29;20133;-76
2023/05/23 11:34:59;;;;;;;18.23;15.05;;;;;;;;;;4953298;29;20082;-75
2023/05/23 11:37:27;;;;;;;19.20;14.53;;;;;;;;;;4953789;29;20054;-76
2023/05/23 11:39:53;;;;;;;18.33;14.70;;;;;;;;;;4954229;29;20047;-76
2023/05/23 11:42:22;;;;;;;18.50;14.73;;;;;;;;;;4955067;29;20043;-76
2023/05/23 11:44:49;;;;;;;17.85;14.45;;;;;;;;;;4953184;29;20051;-77
2023/05/23 11:47:15;;;;;;;16.75;14.38;;;;;;;;;;4953406;29;20047;-75
2023/05/23 11:49:45;;;;;;;17.92;15.57;;;;;;;;;;4953107;29;20047;-76
2023/05/23 11:52:11;;;;;;;17.07;14.30;;;;;;;;;;4953366;29;20102;-76
2023/05/23 11:54:40;;;;;;;16.67;13.90;;;;;;;;;;4953995;29;20043;-76
2023/05/23 11:57:07;;;;;;;15.25;13.18;;;;;;;;;;4953673;29;20051;-76
2023/05/23 11:59:35;;;;;;;17.73;14.60;;;;;;;;;;4952859;29;20043;-77
2023/05/23 12:02:02;;;;;;;18.00;14.52;;;;;;;;;;4950925;29;20134;-76
2023/05/23 12:04:29;;;;;;;19.33;14.77;;;;;;;;;;4933657;29;20139;-75
2023/05/23 12:06:55;;;;;;;16.65;13.15;;;;;;;;;;4937931;29;20057;-77
2023/05/23 12:09:22;;;;;;;20.13;15.38;;;;;;;;;;4952389;29;20126;-76
2023/05/23 12:11:49;;;;;;;17.77;13.52;;;;;;;;;;4955985;29;20047;-79
2023/05/23 12:14:17;;;;;;;16.50;13.30;;;;;;;;;;4955690;29;20138;-79
2023/05/23 12:16:46;;;;;;;18.23;12.32;;;;;;;;;;4955312;28;20043;-76
2023/05/23 12:19:14;;;;;;;16.33;13.07;;;;;;;;;;4954069;29;20051;-76
2023/05/23 12:21:42;;;;;;;17.67;13.98;;;;;;;;;;4953296;29;20079;-76
2023/05/23 12:24:17;;;;;;;17.63;13.85;;;;;;;;;;4955267;29;20087;-74
2023/05/23 12:26:51;;;;;;;23.20;13.75;;;;;;;;;;4954743;28;20418;-77
2023/05/23 12:29:21;;;;;;;17.02;13.68;;;;;;;;;;4951932;29;20047;-76
2023/05/23 12:31:50;;;;;;;23.48;16.08;;;;;;;;;;4953053;29;20051;-78
2023/05/23 12:34:17;;;;;;;19.90;14.33;;;;;;;;;;4946100;28;20049;-80
2023/05/23 12:36:44;;;;;;;16.23;13.13;;;;;;;;;;4959422;28;20086;-79
2023/05/23 12:39:11;;;;;;;16.30;13.90;;;;;;;;;;4955466;29;20043;-75
2023/05/23 12:41:37;;;;;;;17.63;13.25;;;;;;;;;;4954852;29;20110;-78
2023/05/23 12:44:04;;;;;;;13.65;11.55;;;;;;;;;;4955352;28;20062;-76
2023/05/23 12:46:31;;;;;;;14.15;11.93;;;;;;;;;;4933752;29;20054;-75
2023/05/23 12:48:59;;;;;;;17.27;12.63;;;;;;;;;;4940312;29;20066;-76
2023/05/23 12:51:25;;;;;;;16.60;13.32;;;;;;;;;;4951773;29;20126;-76
2023/05/23 12:53:52;;;;;;;15.77;13.80;;;;;;;;;;4948644;29;20574;-76
2023/05/23 12:56:21;;;;;;;16.40;12.85;;;;;;;;;;4953967;29;20082;-76
2023/05/23 12:58:47;;;;;;;19.85;14.80;;;;;;;;;;4950926;29;20055;-76
2023/05/23 13:01:14;;;;;;;16.27;14.32;;;;;;;;;;4952451;29;20497;-76
2023/05/23 13:03:40;;;;;;;19.15;14.60;;;;;;;;;;4952833;29;20047;-75
2023/05/23 13:06:09;;;;;;;17.00;13.95;;;;;;;;;;4952192;29;20153;-75
2023/05/23 13:08:35;;;;;;;14.80;13.07;;;;;;;;;;4951846;29;20050;-76
2023/05/23 13:11:02;;;;;;;16.58;12.20;;;;;;;;;;4951152;29;20395;-76
2023/05/23 13:13:29;;;;;;;17.60;13.40;;;;;;;;;;4952143;29;20723;-75
2023/05/23 13:15:56;;;;;;;15.35;12.63;;;;;;;;;;4951661;28;20059;-76
2023/05/23 13:18:22;;;;;;;14.95;12.70;;;;;;;;;;4951601;29;20082;-76
2023/05/23 13:20:49;;;;;;;16.50;13.10;;;;;;;;;;4951789;29;20051;-76
2023/05/23 13:23:17;;;;;;;16.05;12.95;;;;;;;;;;4951913;29;20093;-76
2023/05/23 13:25:44;;;;;;;16.15;12.68;;;;;;;;;;4951870;28;20051;-76
2023/05/23 13:28:11;;;;;;;16.73;13.38;;;;;;;;;;4950316;29;20097;-77
2023/05/23 13:30:37;;;;;;;15.95;13.18;;;;;;;;;;4932321;28;20048;-76
2023/05/23 13:33:04;;;;;;;14.68;12.95;;;;;;;;;;4932669;29;20130;-77
2023/05/23 13:35:31;;;;;;;14.93;12.90;;;;;;;;;;4932363;29;20181;-76
2023/05/23 13:37:59;;;;;;;14.93;12.13;;;;;;;;;;4932304;29;20077;-78
2023/05/23 13:40:27;;;;;;;13.85;12.27;;;;;;;;;;4946925;29;20495;-76
2023/05/23 13:42:53;;;;;;;15.25;12.60;;;;;;;;;;4937455;29;20127;-76
2023/05/23 13:45:21;;;;;;;14.27;12.02;;;;;;;;;;4936605;29;20524;-77
2023/05/23 13:47:48;;;;;;;15.30;12.50;;;;;;;;;;4936629;29;20160;-77
2023/05/23 13:50:15;;;;;;;15.82;12.52;;;;;;;;;;4942754;29;20056;-75
2023/05/23 13:52:41;;;;;;;16.35;11.65;;;;;;;;;;4941746;29;20040;-77
2023/05/23 13:55:09;;;;;;;14.07;11.95;;;;;;;;;;4952517;29;20043;-76
2023/05/23 13:57:37;;;;;;;15.10;12.02;;;;;;;;;;4942419;29;20715;-76
2023/05/23 14:00:05;;;;;;;13.73;12.13;;;;;;;;;;4942547;29;20052;-75
2023/05/23 14:02:31;;;;;;;14.45;12.63;;;;;;;;;;4947335;29;20124;-78
2023/05/23 14:04:58;;;;;;;12.88;10.88;;;;;;;;;;4936231;29;20676;-76
2023/05/23 14:07:25;;;;;;;14.70;13.10;;;;;;;;;;4949347;29;20057;-77
2023/05/23 14:09:51;;;;;;;13.05;11.43;;;;;;;;;;4954759;29;20047;-76
2023/05/23 14:12:18;;;;;;;15.95;11.88;;;;;;;;;;4955172;29;20133;-76
2023/05/23 14:14:46;;;;;;;13.73;11.40;;;;;;;;;;4954864;29;20047;-76
2023/05/23 14:17:15;;;;;;;15.70;11.40;;;;;;;;;;4954948;29;20043;-78
2023/05/23 14:19:42;;;;;;;12.02;10.73;;;;;;;;;;4954537;29;20459;-75
2023/05/23 14:22:09;;;;;;;14.65;10.88;;;;;;;;;;4954644;29;20126;-77